sensor_id;sensor_type;location;lat;lon;timestamp;P1;durP1;ratioP1;P2;durP2;ratioP2
51312;SDS011;37397;53.226;10.400;2023-03-23T00:01:22;5.93;;;2.80;;
51312;SDS011;37397;53.226;10.400;2023-03-23T00:03:50;5.60;;;2.80;;
51312;SDS011;37397;53.226;10.400;2023-03-23T00:06:20;6.38;;;3.13;;
51312;SDS011;37397;53.226;10.400;2023-03-23T00:08:47;7.38;;;3.17;;
51312;SDS011;37397;53.226;10.400;2023-03-23T00:11:15;4.55;;;2.45;;
51312;SDS011;37397;53.226;10.400;2023-03-23T00:13:43;7.38;;;2.55;;
51312;SDS011;37397;53.226;10.400;2023-03-23T00:16:10;6.18;;;2.88;;
51312;SDS011;37397;53.226;10.400;2023-03-23T00:18:46;7.47;;;3.67;;
51312;SDS011;37397;53.226;10.400;2023-03-23T00:21:13;5.43;;;2.85;;
51312;SDS011;37397;53.226;10.400;2023-03-23T00:23:38;7.50;;;3.13;;
51312;SDS011;37397;53.226;10.400;2023-03-23T00:26:05;6.10;;;3.00;;
51312;SDS011;37397;53.226;10.400;2023-03-23T00:28:31;9.73;;;3.00;;
51312;SDS011;37397;53.226;10.400;2023-03-23T00:30:57;7.72;;;3.17;;
51312;SDS011;37397;53.226;10.400;2023-03-23T00:33:24;7.07;;;3.00;;
51312;SDS011;37397;53.226;10.400;2023-03-23T00:35:52;7.78;;;3.03;;
51312;SDS011;37397;53.226;10.400;2023-03-23T00:38:20;6.63;;;3.10;;
51312;SDS011;37397;53.226;10.400;2023-03-23T00:40:46;6.30;;;2.88;;
51312;SDS011;37397;53.226;10.400;2023-03-23T00:43:15;7.10;;;3.03;;
51312;SDS011;37397;53.226;10.400;2023-03-23T00:45:42;8.02;;;3.15;;
51312;SDS011;37397;53.226;10.400;2023-03-23T00:48:18;6.05;;;2.75;;
51312;SDS011;37397;53.226;10.400;2023-03-23T00:50:44;6.97;;;3.03;;
51312;SDS011;37397;53.226;10.400;2023-03-23T00:53:10;8.75;;;3.10;;
51312;SDS011;37397;53.226;10.400;2023-03-23T00:55:35;5.85;;;2.92;;
51312;SDS011;37397;53.226;10.400;2023-03-23T00:58:01;9.57;;;3.42;;
51312;SDS011;37397;53.226;10.400;2023-03-23T01:00:26;7.22;;;3.28;;
51312;SDS011;37397;53.226;10.400;2023-03-23T01:02:52;7.07;;;3.30;;
51312;SDS011;37397;53.226;10.400;2023-03-23T01:05:18;7.93;;;2.85;;
51312;SDS011;37397;53.226;10.400;2023-03-23T01:07:44;7.22;;;3.40;;
51312;SDS011;37397;53.226;10.400;2023-03-23T01:10:10;10.25;;;3.40;;
51312;SDS011;37397;53.226;10.400;2023-03-23T01:12:46;9.38;;;3.95;;
51312;SDS011;37397;53.226;10.400;2023-03-23T01:15:15;9.40;;;3.47;;
51312;SDS011;37397;53.226;10.400;2023-03-23T01:17:42;8.43;;;3.63;;
51312;SDS011;37397;53.226;10.400;2023-03-23T01:20:09;5.03;;;2.97;;
51312;SDS011;37397;53.226;10.400;2023-03-23T01:22:36;9.10;;;3.50;;
51312;SDS011;37397;53.226;10.400;2023-03-23T01:25:02;6.15;;;3.40;;
51312;SDS011;37397;53.226;10.400;2023-03-23T01:27:28;8.02;;;3.30;;
51312;SDS011;37397;53.226;10.400;2023-03-23T01:29:53;7.53;;;3.33;;
51312;SDS011;37397;53.226;10.400;2023-03-23T01:32:19;6.50;;;3.38;;
51312;SDS011;37397;53.226;10.400;2023-03-23T01:34:46;8.43;;;3.42;;
51312;SDS011;37397;53.226;10.400;2023-03-23T01:37:11;8.65;;;3.85;;
51312;SDS011;37397;53.226;10.400;2023-03-23T01:39:37;9.32;;;3.67;;
51312;SDS011;37397;53.226;10.400;2023-03-23T01:42:03;9.52;;;4.00;;
51312;SDS011;37397;53.226;10.400;2023-03-23T01:47:02;8.02;;;3.88;;
51312;SDS011;37397;53.226;10.400;2023-03-23T01:49:36;9.20;;;3.92;;
51312;SDS011;37397;53.226;10.400;2023-03-23T01:52:07;9.55;;;4.07;;
51312;SDS011;37397;53.226;10.400;2023-03-23T01:54:42;9.88;;;3.85;;
51312;SDS011;37397;53.226;10.400;2023-03-23T01:57:11;10.15;;;4.22;;
51312;SDS011;37397;53.226;10.400;2023-03-23T01:59:43;10.85;;;4.22;;
51312;SDS011;37397;53.226;10.400;2023-03-23T02:02:18;7.43;;;3.67;;
51312;SDS011;37397;53.226;10.400;2023-03-23T02:04:47;10.45;;;4.38;;
51312;SDS011;37397;53.226;10.400;2023-03-23T02:07:13;7.93;;;3.88;;
51312;SDS011;37397;53.226;10.400;2023-03-23T02:09:42;8.10;;;4.03;;
51312;SDS011;37397;53.226;10.400;2023-03-23T02:12:08;9.80;;;4.38;;
51312;SDS011;37397;53.226;10.400;2023-03-23T02:14:35;7.40;;;3.92;;
51312;SDS011;37397;53.226;10.400;2023-03-23T02:17:06;7.18;;;3.42;;
51312;SDS011;37397;53.226;10.400;2023-03-23T02:28:04;8.32;;;4.15;;
51312;SDS011;37397;53.226;10.400;2023-03-23T02:30:48;7.47;;;3.88;;
51312;SDS011;37397;53.226;10.400;2023-03-23T02:33:38;6.65;;;3.63;;
51312;SDS011;37397;53.226;10.400;2023-03-23T02:36:30;6.75;;;4.05;;
51312;SDS011;37397;53.226;10.400;2023-03-23T02:39:12;8.18;;;4.22;;
51312;SDS011;37397;53.226;10.400;2023-03-23T02:41:45;10.48;;;4.82;;
51312;SDS011;37397;53.226;10.400;2023-03-23T02:44:32;8.15;;;4.22;;
51312;SDS011;37397;53.226;10.400;2023-03-23T02:47:02;8.80;;;3.97;;
51312;SDS011;37397;53.226;10.400;2023-03-23T02:49:31;7.18;;;3.63;;
51312;SDS011;37397;53.226;10.400;2023-03-23T02:51:58;7.55;;;3.90;;
51312;SDS011;37397;53.226;10.400;2023-03-23T02:54:27;8.32;;;4.32;;
51312;SDS011;37397;53.226;10.400;2023-03-23T02:56:54;11.30;;;3.97;;
51312;SDS011;37397;53.226;10.400;2023-03-23T02:59:26;8.63;;;4.30;;
51312;SDS011;37397;53.226;10.400;2023-03-23T03:01:55;7.78;;;4.20;;
51312;SDS011;37397;53.226;10.400;2023-03-23T03:04:25;7.38;;;4.28;;
51312;SDS011;37397;53.226;10.400;2023-03-23T03:07:01;8.05;;;4.55;;
51312;SDS011;37397;53.226;10.400;2023-03-23T03:12:41;8.75;;;4.45;;
51312;SDS011;37397;53.226;10.400;2023-03-23T03:15:47;7.75;;;3.70;;
51312;SDS011;37397;53.226;10.400;2023-03-23T03:18:34;9.60;;;4.20;;
51312;SDS011;37397;53.226;10.400;2023-03-23T03:21:09;9.00;;;4.70;;
51312;SDS011;37397;53.226;10.400;2023-03-23T03:23:40;9.35;;;4.70;;
51312;SDS011;37397;53.226;10.400;2023-03-23T03:26:10;9.40;;;4.43;;
51312;SDS011;37397;53.226;10.400;2023-03-23T03:28:45;8.85;;;4.63;;
51312;SDS011;37397;53.226;10.400;2023-03-23T03:31:15;12.25;;;4.80;;
51312;SDS011;37397;53.226;10.400;2023-03-23T03:33:44;9.73;;;4.40;;
51312;SDS011;37397;53.226;10.400;2023-03-23T03:36:15;7.10;;;3.97;;
51312;SDS011;37397;53.226;10.400;2023-03-23T03:38:52;9.35;;;4.57;;
51312;SDS011;37397;53.226;10.400;2023-03-23T03:41:19;8.15;;;4.38;;
51312;SDS011;37397;53.226;10.400;2023-03-23T03:43:46;7.78;;;4.22;;
51312;SDS011;37397;53.226;10.400;2023-03-23T03:46:11;7.97;;;4.20;;
51312;SDS011;37397;53.226;10.400;2023-03-23T03:48:37;6.43;;;4.22;;
51312;SDS011;37397;53.226;10.400;2023-03-23T03:51:03;10.85;;;4.05;;
51312;SDS011;37397;53.226;10.400;2023-03-23T03:53:32;7.22;;;4.20;;
51312;SDS011;37397;53.226;10.400;2023-03-23T03:55:58;9.95;;;4.07;;
51312;SDS011;37397;53.226;10.400;2023-03-23T03:58:29;8.23;;;4.45;;
51312;SDS011;37397;53.226;10.400;2023-03-23T04:01:06;7.05;;;3.97;;
51312;SDS011;37397;53.226;10.400;2023-03-23T04:03:36;7.93;;;4.22;;
51312;SDS011;37397;53.226;10.400;2023-03-23T04:06:07;8.13;;;4.07;;
51312;SDS011;37397;53.226;10.400;2023-03-23T04:08:38;8.02;;;4.50;;
51312;SDS011;37397;53.226;10.400;2023-03-23T04:11:06;9.77;;;4.78;;
51312;SDS011;37397;53.226;10.400;2023-03-23T04:13:33;8.80;;;4.78;;
51312;SDS011;37397;53.226;10.400;2023-03-23T04:16:02;8.18;;;4.55;;
51312;SDS011;37397;53.226;10.400;2023-03-23T04:18:31;7.10;;;4.53;;
51312;SDS011;37397;53.226;10.400;2023-03-23T04:20:59;9.93;;;4.80;;
51312;SDS011;37397;53.226;10.400;2023-03-23T04:23:27;9.82;;;4.88;;
51312;SDS011;37397;53.226;10.400;2023-03-23T04:25:58;9.77;;;4.75;;
51312;SDS011;37397;53.226;10.400;2023-03-23T04:28:30;7.28;;;4.03;;
51312;SDS011;37397;53.226;10.400;2023-03-23T04:31:17;8.48;;;4.68;;
51312;SDS011;37397;53.226;10.400;2023-03-23T04:33:47;7.32;;;4.03;;
51312;SDS011;37397;53.226;10.400;2023-03-23T04:36:15;8.60;;;4.35;;
51312;SDS011;37397;53.226;10.400;2023-03-23T04:38:50;8.57;;;4.53;;
51312;SDS011;37397;53.226;10.400;2023-03-23T04:41:21;7.45;;;4.32;;
51312;SDS011;37397;53.226;10.400;2023-03-23T04:43:58;8.98;;;5.13;;
51312;SDS011;37397;53.226;10.400;2023-03-23T04:46:34;8.63;;;4.80;;
51312;SDS011;37397;53.226;10.400;2023-03-23T04:49:06;9.43;;;4.80;;
51312;SDS011;37397;53.226;10.400;2023-03-23T04:51:35;8.52;;;4.40;;
51312;SDS011;37397;53.226;10.400;2023-03-23T04:54:12;8.20;;;4.43;;
51312;SDS011;37397;53.226;10.400;2023-03-23T04:56:40;8.05;;;4.40;;
51312;SDS011;37397;53.226;10.400;2023-03-23T04:59:11;8.88;;;4.00;;
51312;SDS011;37397;53.226;10.400;2023-03-23T05:01:48;8.65;;;4.65;;
51312;SDS011;37397;53.226;10.400;2023-03-23T05:04:16;8.65;;;4.47;;
51312;SDS011;37397;53.226;10.400;2023-03-23T05:06:51;8.13;;;4.40;;
51312;SDS011;37397;53.226;10.400;2023-03-23T05:09:23;8.00;;;4.53;;
51312;SDS011;37397;53.226;10.400;2023-03-23T05:11:51;7.90;;;4.35;;
51312;SDS011;37397;53.226;10.400;2023-03-23T05:14:17;8.25;;;3.67;;
51312;SDS011;37397;53.226;10.400;2023-03-23T05:16:48;8.57;;;3.70;;
51312;SDS011;37397;53.226;10.400;2023-03-23T05:19:16;8.10;;;4.00;;
51312;SDS011;37397;53.226;10.400;2023-03-23T05:21:43;5.95;;;3.80;;
51312;SDS011;37397;53.226;10.400;2023-03-23T05:24:10;7.75;;;4.03;;
51312;SDS011;37397;53.226;10.400;2023-03-23T05:26:36;6.68;;;3.65;;
51312;SDS011;37397;53.226;10.400;2023-03-23T05:29:14;5.78;;;3.55;;
51312;SDS011;37397;53.226;10.400;2023-03-23T05:31:51;7.32;;;3.75;;
51312;SDS011;37397;53.226;10.400;2023-03-23T05:34:18;7.95;;;3.88;;
51312;SDS011;37397;53.226;10.400;2023-03-23T05:36:55;6.93;;;3.50;;
51312;SDS011;37397;53.226;10.400;2023-03-23T05:39:32;6.82;;;3.83;;
51312;SDS011;37397;53.226;10.400;2023-03-23T05:42:26;7.40;;;3.80;;
51312;SDS011;37397;53.226;10.400;2023-03-23T05:45:04;6.32;;;3.50;;
51312;SDS011;37397;53.226;10.400;2023-03-23T05:47:31;6.78;;;4.03;;
51312;SDS011;37397;53.226;10.400;2023-03-23T05:50:03;6.40;;;3.70;;
51312;SDS011;37397;53.226;10.400;2023-03-23T05:52:33;5.78;;;3.50;;
51312;SDS011;37397;53.226;10.400;2023-03-23T05:55:01;7.50;;;3.72;;
51312;SDS011;37397;53.226;10.400;2023-03-23T05:57:30;5.40;;;3.20;;
51312;SDS011;37397;53.226;10.400;2023-03-23T06:00:02;9.18;;;3.40;;
51312;SDS011;37397;53.226;10.400;2023-03-23T06:02:47;8.95;;;3.72;;
51312;SDS011;37397;53.226;10.400;2023-03-23T06:05:19;5.13;;;3.20;;
51312;SDS011;37397;53.226;10.400;2023-03-23T06:07:50;5.32;;;3.17;;
51312;SDS011;37397;53.226;10.400;2023-03-23T06:10:16;7.25;;;3.50;;
51312;SDS011;37397;53.226;10.400;2023-03-23T06:12:46;7.30;;;3.20;;
51312;SDS011;37397;53.226;10.400;2023-03-23T06:15:25;5.88;;;3.42;;
51312;SDS011;37397;53.226;10.400;2023-03-23T06:18:29;5.97;;;3.08;;
51312;SDS011;37397;53.226;10.400;2023-03-23T06:21:17;6.78;;;3.10;;
51312;SDS011;37397;53.226;10.400;2023-03-23T06:23:53;6.85;;;3.03;;
51312;SDS011;37397;53.226;10.400;2023-03-23T06:26:22;6.38;;;3.15;;
51312;SDS011;37397;53.226;10.400;2023-03-23T06:28:56;6.82;;;3.20;;
51312;SDS011;37397;53.226;10.400;2023-03-23T06:31:23;7.10;;;3.50;;
51312;SDS011;37397;53.226;10.400;2023-03-23T06:33:51;5.40;;;3.03;;
51312;SDS011;37397;53.226;10.400;2023-03-23T06:36:37;5.07;;;2.90;;
51312;SDS011;37397;53.226;10.400;2023-03-23T06:39:09;5.57;;;2.97;;
51312;SDS011;37397;53.226;10.400;2023-03-23T06:42:10;7.30;;;3.20;;
51312;SDS011;37397;53.226;10.400;2023-03-23T06:44:40;5.85;;;2.90;;
51312;SDS011;37397;53.226;10.400;2023-03-23T06:47:06;7.88;;;3.22;;
51312;SDS011;37397;53.226;10.400;2023-03-23T06:49:35;4.90;;;2.85;;
51312;SDS011;37397;53.226;10.400;2023-03-23T06:52:13;6.03;;;2.90;;
51312;SDS011;37397;53.226;10.400;2023-03-23T06:54:39;7.18;;;2.78;;
51312;SDS011;37397;53.226;10.400;2023-03-23T06:57:07;7.53;;;3.00;;
51312;SDS011;37397;53.226;10.400;2023-03-23T06:59:33;5.03;;;2.80;;
51312;SDS011;37397;53.226;10.400;2023-03-23T07:02:00;4.90;;;2.33;;
51312;SDS011;37397;53.226;10.400;2023-03-23T07:04:25;6.47;;;2.78;;
51312;SDS011;37397;53.226;10.400;2023-03-23T07:06:59;5.32;;;3.08;;
51312;SDS011;37397;53.226;10.400;2023-03-23T07:09:26;6.88;;;2.95;;
51312;SDS011;37397;53.226;10.400;2023-03-23T07:11:51;6.63;;;2.95;;
51312;SDS011;37397;53.226;10.400;2023-03-23T07:14:31;6.65;;;2.63;;
51312;SDS011;37397;53.226;10.400;2023-03-23T07:16:57;4.20;;;2.55;;
51312;SDS011;37397;53.226;10.400;2023-03-23T07:19:23;4.72;;;2.85;;
51312;SDS011;37397;53.226;10.400;2023-03-23T07:21:49;7.13;;;3.78;;
51312;SDS011;37397;53.226;10.400;2023-03-23T07:24:15;11.48;;;4.60;;
51312;SDS011;37397;53.226;10.400;2023-03-23T07:27:02;11.90;;;4.57;;
51312;SDS011;37397;53.226;10.400;2023-03-23T07:29:29;19.23;;;5.80;;
51312;SDS011;37397;53.226;10.400;2023-03-23T07:32:04;16.67;;;6.55;;
51312;SDS011;37397;53.226;10.400;2023-03-23T07:34:31;14.80;;;6.70;;
51312;SDS011;37397;53.226;10.400;2023-03-23T07:37:05;18.15;;;5.25;;
51312;SDS011;37397;53.226;10.400;2023-03-23T07:39:33;12.52;;;5.63;;
51312;SDS011;37397;53.226;10.400;2023-03-23T07:42:00;9.55;;;4.55;;
51312;SDS011;37397;53.226;10.400;2023-03-23T07:44:40;10.95;;;4.80;;
51312;SDS011;37397;53.226;10.400;2023-03-23T07:47:08;8.85;;;3.90;;
51312;SDS011;37397;53.226;10.400;2023-03-23T07:49:34;8.23;;;4.00;;
51312;SDS011;37397;53.226;10.400;2023-03-23T07:52:21;8.00;;;3.42;;
51312;SDS011;37397;53.226;10.400;2023-03-23T07:54:46;6.25;;;3.10;;
51312;SDS011;37397;53.226;10.400;2023-03-23T07:57:33;6.43;;;3.00;;
51312;SDS011;37397;53.226;10.400;2023-03-23T07:59:59;7.15;;;3.10;;
51312;SDS011;37397;53.226;10.400;2023-03-23T08:02:26;9.25;;;3.00;;
51312;SDS011;37397;53.226;10.400;2023-03-23T08:05:10;4.53;;;2.55;;
51312;SDS011;37397;53.226;10.400;2023-03-23T08:08:05;5.68;;;2.85;;
51312;SDS011;37397;53.226;10.400;2023-03-23T08:10:52;3.60;;;2.42;;
51312;SDS011;37397;53.226;10.400;2023-03-23T08:13:38;5.97;;;2.78;;
51312;SDS011;37397;53.226;10.400;2023-03-23T08:16:34;5.72;;;2.78;;
51312;SDS011;37397;53.226;10.400;2023-03-23T08:19:06;7.32;;;2.63;;
51312;SDS011;37397;53.226;10.400;2023-03-23T08:21:48;7.03;;;2.75;;
51312;SDS011;37397;53.226;10.400;2023-03-23T08:24:23;5.22;;;2.42;;
51312;SDS011;37397;53.226;10.400;2023-03-23T08:27:05;5.38;;;2.70;;
51312;SDS011;37397;53.226;10.400;2023-03-23T08:29:54;4.72;;;2.55;;
51312;SDS011;37397;53.226;10.400;2023-03-23T08:32:40;5.57;;;2.50;;
51312;SDS011;37397;53.226;10.400;2023-03-23T08:35:12;3.75;;;2.40;;
51312;SDS011;37397;53.226;10.400;2023-03-23T08:37:54;4.65;;;2.55;;
51312;SDS011;37397;53.226;10.400;2023-03-23T08:40:38;5.60;;;2.55;;
51312;SDS011;37397;53.226;10.400;2023-03-23T08:43:23;4.32;;;2.15;;
51312;SDS011;37397;53.226;10.400;2023-03-23T08:46:15;5.70;;;2.80;;
51312;SDS011;37397;53.226;10.400;2023-03-23T08:48:58;5.20;;;2.50;;
51312;SDS011;37397;53.226;10.400;2023-03-23T08:51:41;4.03;;;2.40;;
51312;SDS011;37397;53.226;10.400;2023-03-23T08:54:15;4.72;;;2.42;;
51312;SDS011;37397;53.226;10.400;2023-03-23T08:57:01;5.55;;;2.28;;
51312;SDS011;37397;53.226;10.400;2023-03-23T08:59:54;5.18;;;2.72;;
51312;SDS011;37397;53.226;10.400;2023-03-23T09:02:32;5.03;;;2.58;;
51312;SDS011;37397;53.226;10.400;2023-03-23T09:05:13;4.10;;;2.40;;
51312;SDS011;37397;53.226;10.400;2023-03-23T09:07:58;5.70;;;2.42;;
51312;SDS011;37397;53.226;10.400;2023-03-23T09:10:25;4.90;;;2.55;;
51312;SDS011;37397;53.226;10.400;2023-03-23T09:12:52;7.18;;;2.53;;
51312;SDS011;37397;53.226;10.400;2023-03-23T09:15:18;5.75;;;2.72;;
51312;SDS011;37397;53.226;10.400;2023-03-23T09:17:45;5.63;;;2.30;;
51312;SDS011;37397;53.226;10.400;2023-03-23T09:20:13;6.65;;;2.70;;
51312;SDS011;37397;53.226;10.400;2023-03-23T09:22:42;6.07;;;2.75;;
51312;SDS011;37397;53.226;10.400;2023-03-23T09:25:09;4.78;;;2.45;;
51312;SDS011;37397;53.226;10.400;2023-03-23T09:27:36;4.78;;;2.50;;
51312;SDS011;37397;53.226;10.400;2023-03-23T09:30:08;7.63;;;2.50;;
51312;SDS011;37397;53.226;10.400;2023-03-23T09:32:37;6.85;;;2.67;;
51312;SDS011;37397;53.226;10.400;2023-03-23T09:35:04;9.88;;;2.60;;
51312;SDS011;37397;53.226;10.400;2023-03-23T09:37:36;7.30;;;2.90;;
51312;SDS011;37397;53.226;10.400;2023-03-23T09:40:04;7.32;;;2.50;;
51312;SDS011;37397;53.226;10.400;2023-03-23T09:42:37;7.97;;;2.65;;
51312;SDS011;37397;53.226;10.400;2023-03-23T09:45:22;8.50;;;2.60;;
51312;SDS011;37397;53.226;10.400;2023-03-23T09:48:02;4.85;;;2.20;;
51312;SDS011;37397;53.226;10.400;2023-03-23T09:50:45;7.65;;;2.85;;
51312;SDS011;37397;53.226;10.400;2023-03-23T09:53:17;5.93;;;2.28;;
51312;SDS011;37397;53.226;10.400;2023-03-23T09:55:46;12.77;;;2.58;;
51312;SDS011;37397;53.226;10.400;2023-03-23T09:58:19;11.35;;;2.42;;
51312;SDS011;37397;53.226;10.400;2023-03-23T10:01:12;10.23;;;2.85;;
51312;SDS011;37397;53.226;10.400;2023-03-23T10:03:44;9.85;;;3.15;;
51312;SDS011;37397;53.226;10.400;2023-03-23T10:06:12;12.50;;;2.88;;
51312;SDS011;37397;53.226;10.400;2023-03-23T10:08:50;9.75;;;2.72;;
51312;SDS011;37397;53.226;10.400;2023-03-23T10:14:15;9.18;;;2.58;;
51312;SDS011;37397;53.226;10.400;2023-03-23T10:22:29;9.48;;;2.50;;
51312;SDS011;37397;53.226;10.400;2023-03-23T10:30:30;8.25;;;2.67;;
51312;SDS011;37397;53.226;10.400;2023-03-23T10:33:20;13.32;;;3.40;;
51312;SDS011;37397;53.226;10.400;2023-03-23T10:35:57;10.05;;;2.67;;
51312;SDS011;37397;53.226;10.400;2023-03-23T10:38:47;11.57;;;2.15;;
51312;SDS011;37397;53.226;10.400;2023-03-23T10:41:18;12.25;;;2.67;;
51312;SDS011;37397;53.226;10.400;2023-03-23T10:43:45;12.98;;;3.03;;
51312;SDS011;37397;53.226;10.400;2023-03-23T10:49:04;14.30;;;3.15;;
51312;SDS011;37397;53.226;10.400;2023-03-23T10:51:37;11.50;;;2.63;;
51312;SDS011;37397;53.226;10.400;2023-03-23T10:54:06;11.35;;;3.13;;
51312;SDS011;37397;53.226;10.400;2023-03-23T10:59:25;13.68;;;2.95;;
51312;SDS011;37397;53.226;10.400;2023-03-23T11:01:54;11.13;;;3.00;;
51312;SDS011;37397;53.226;10.400;2023-03-23T11:04:23;13.85;;;2.80;;
51312;SDS011;37397;53.226;10.400;2023-03-23T11:06:51;8.55;;;2.97;;
51312;SDS011;37397;53.226;10.400;2023-03-23T11:09:19;12.50;;;3.03;;
51312;SDS011;37397;53.226;10.400;2023-03-23T11:11:53;12.93;;;2.88;;
51312;SDS011;37397;53.226;10.400;2023-03-23T11:14:25;8.25;;;2.75;;
51312;SDS011;37397;53.226;10.400;2023-03-23T11:16:57;9.35;;;2.72;;
51312;SDS011;37397;53.226;10.400;2023-03-23T11:19:29;8.45;;;2.83;;
51312;SDS011;37397;53.226;10.400;2023-03-23T11:24:36;10.55;;;2.65;;
51312;SDS011;37397;53.226;10.400;2023-03-23T11:27:06;9.05;;;2.30;;
51312;SDS011;37397;53.226;10.400;2023-03-23T11:29:34;8.35;;;2.40;;
51312;SDS011;37397;53.226;10.400;2023-03-23T11:32:03;10.23;;;2.72;;
51312;SDS011;37397;53.226;10.400;2023-03-23T11:34:33;7.85;;;2.47;;
51312;SDS011;37397;53.226;10.400;2023-03-23T11:37:02;8.45;;;2.35;;
51312;SDS011;37397;53.226;10.400;2023-03-23T11:39:32;11.48;;;2.33;;
51312;SDS011;37397;53.226;10.400;2023-03-23T11:42:00;10.15;;;2.45;;
51312;SDS011;37397;53.226;10.400;2023-03-23T11:44:40;9.60;;;2.60;;
51312;SDS011;37397;53.226;10.400;2023-03-23T11:47:20;8.38;;;2.40;;
51312;SDS011;37397;53.226;10.400;2023-03-23T11:52:32;10.85;;;2.75;;
51312;SDS011;37397;53.226;10.400;2023-03-23T11:55:17;9.02;;;1.92;;
51312;SDS011;37397;53.226;10.400;2023-03-23T11:57:49;11.45;;;2.90;;
51312;SDS011;37397;53.226;10.400;2023-03-23T12:00:15;9.88;;;2.10;;
51312;SDS011;37397;53.226;10.400;2023-03-23T12:02:52;7.85;;;2.50;;
51312;SDS011;37397;53.226;10.400;2023-03-23T12:16:50;11.63;;;2.45;;
51312;SDS011;37397;53.226;10.400;2023-03-23T12:19:37;10.30;;;2.30;;
51312;SDS011;37397;53.226;10.400;2023-03-23T12:22:36;11.43;;;2.42;;
51312;SDS011;37397;53.226;10.400;2023-03-23T12:39:50;16.02;;;3.33;;
51312;SDS011;37397;53.226;10.400;2023-03-23T12:44:49;12.48;;;3.00;;
51312;SDS011;37397;53.226;10.400;2023-03-23T12:47:25;8.77;;;3.13;;
51312;SDS011;37397;53.226;10.400;2023-03-23T12:56:16;8.75;;;2.92;;
51312;SDS011;37397;53.226;10.400;2023-03-23T12:58:50;9.80;;;3.22;;
51312;SDS011;37397;53.226;10.400;2023-03-23T13:01:24;8.88;;;3.17;;
51312;SDS011;37397;53.226;10.400;2023-03-23T13:03:56;10.10;;;3.08;;
51312;SDS011;37397;53.226;10.400;2023-03-23T13:11:51;10.77;;;3.30;;
51312;SDS011;37397;53.226;10.400;2023-03-23T13:14:25;10.23;;;3.10;;
51312;SDS011;37397;53.226;10.400;2023-03-23T13:25:13;7.43;;;2.63;;
51312;SDS011;37397;53.226;10.400;2023-03-23T13:27:44;6.88;;;2.50;;
51312;SDS011;37397;53.226;10.400;2023-03-23T13:30:17;8.63;;;2.92;;
51312;SDS011;37397;53.226;10.400;2023-03-23T13:32:49;7.65;;;2.85;;
51312;SDS011;37397;53.226;10.400;2023-03-23T13:35:17;7.95;;;2.58;;
51312;SDS011;37397;53.226;10.400;2023-03-23T13:37:47;7.30;;;2.40;;
51312;SDS011;37397;53.226;10.400;2023-03-23T13:40:26;7.10;;;2.65;;
51312;SDS011;37397;53.226;10.400;2023-03-23T13:42:55;6.97;;;1.95;;
51312;SDS011;37397;53.226;10.400;2023-03-23T13:45:23;6.32;;;2.25;;
51312;SDS011;37397;53.226;10.400;2023-03-23T13:48:05;5.93;;;2.15;;
51312;SDS011;37397;53.226;10.400;2023-03-23T13:50:50;5.63;;;2.13;;
51312;SDS011;37397;53.226;10.400;2023-03-23T13:53:22;5.35;;;2.10;;
51312;SDS011;37397;53.226;10.400;2023-03-23T13:55:51;6.55;;;1.90;;
51312;SDS011;37397;53.226;10.400;2023-03-23T13:58:30;9.35;;;2.17;;
51312;SDS011;37397;53.226;10.400;2023-03-23T14:03:36;7.38;;;1.90;;
51312;SDS011;37397;53.226;10.400;2023-03-23T14:06:11;6.90;;;2.00;;
51312;SDS011;37397;53.226;10.400;2023-03-23T14:09:09;5.45;;;1.80;;
51312;SDS011;37397;53.226;10.400;2023-03-23T14:11:44;4.72;;;1.73;;
51312;SDS011;37397;53.226;10.400;2023-03-23T14:14:23;3.67;;;1.92;;
51312;SDS011;37397;53.226;10.400;2023-03-23T14:16:53;4.65;;;2.00;;
51312;SDS011;37397;53.226;10.400;2023-03-23T14:19:31;6.10;;;1.60;;
51312;SDS011;37397;53.226;10.400;2023-03-23T14:22:00;5.22;;;1.60;;
51312;SDS011;37397;53.226;10.400;2023-03-23T14:24:31;3.80;;;1.48;;
51312;SDS011;37397;53.226;10.400;2023-03-23T14:29:30;8.45;;;1.92;;
51312;SDS011;37397;53.226;10.400;2023-03-23T14:31:56;7.55;;;1.70;;
51312;SDS011;37397;53.226;10.400;2023-03-23T14:34:25;4.20;;;1.85;;
51312;SDS011;37397;53.226;10.400;2023-03-23T14:36:53;4.72;;;1.45;;
51312;SDS011;37397;53.226;10.400;2023-03-23T14:39:39;3.72;;;1.50;;
51312;SDS011;37397;53.226;10.400;2023-03-23T14:44:37;5.28;;;1.70;;
51312;SDS011;37397;53.226;10.400;2023-03-23T14:47:07;3.53;;;1.65;;
51312;SDS011;37397;53.226;10.400;2023-03-23T14:49:39;3.78;;;1.55;;
51312;SDS011;37397;53.226;10.400;2023-03-23T14:54:37;4.88;;;1.50;;
51312;SDS011;37397;53.226;10.400;2023-03-23T14:57:13;6.63;;;1.95;;
51312;SDS011;37397;53.226;10.400;2023-03-23T14:59:41;4.82;;;1.80;;
51312;SDS011;37397;53.226;10.400;2023-03-23T15:02:12;5.47;;;1.50;;
51312;SDS011;37397;53.226;10.400;2023-03-23T15:04:42;3.80;;;1.33;;
51312;SDS011;37397;53.226;10.400;2023-03-23T15:07:10;2.70;;;1.40;;
51312;SDS011;37397;53.226;10.400;2023-03-23T15:09:42;5.93;;;1.60;;
51312;SDS011;37397;53.226;10.400;2023-03-23T15:12:13;5.53;;;1.70;;
51312;SDS011;37397;53.226;10.400;2023-03-23T15:14:47;5.88;;;2.08;;
51312;SDS011;37397;53.226;10.400;2023-03-23T15:17:22;6.60;;;2.10;;
51312;SDS011;37397;53.226;10.400;2023-03-23T15:19:50;4.50;;;1.95;;
51312;SDS011;37397;53.226;10.400;2023-03-23T15:22:23;4.70;;;1.48;;
51312;SDS011;37397;53.226;10.400;2023-03-23T15:24:52;5.30;;;1.90;;
51312;SDS011;37397;53.226;10.400;2023-03-23T15:27:30;5.95;;;2.00;;
51312;SDS011;37397;53.226;10.400;2023-03-23T15:29:58;8.73;;;2.20;;
51312;SDS011;37397;53.226;10.400;2023-03-23T15:32:38;5.85;;;2.00;;
51312;SDS011;37397;53.226;10.400;2023-03-23T15:35:13;4.97;;;1.63;;
51312;SDS011;37397;53.226;10.400;2023-03-23T15:37:47;7.90;;;2.13;;
51312;SDS011;37397;53.226;10.400;2023-03-23T15:40:23;6.32;;;2.08;;
51312;SDS011;37397;53.226;10.400;2023-03-23T15:42:50;9.48;;;2.25;;
51312;SDS011;37397;53.226;10.400;2023-03-23T15:45:32;8.05;;;2.33;;
51312;SDS011;37397;53.226;10.400;2023-03-23T15:48:04;8.65;;;2.00;;
51312;SDS011;37397;53.226;10.400;2023-03-23T15:50:36;6.82;;;2.10;;
51312;SDS011;37397;53.226;10.400;2023-03-23T15:53:12;6.35;;;1.98;;
51312;SDS011;37397;53.226;10.400;2023-03-23T15:55:45;7.47;;;2.00;;
51312;SDS011;37397;53.226;10.400;2023-03-23T15:58:12;7.15;;;1.92;;
51312;SDS011;37397;53.226;10.400;2023-03-23T16:00:39;6.28;;;1.95;;
51312;SDS011;37397;53.226;10.400;2023-03-23T16:03:10;6.13;;;1.80;;
51312;SDS011;37397;53.226;10.400;2023-03-23T16:05:40;7.50;;;2.05;;
51312;SDS011;37397;53.226;10.400;2023-03-23T16:08:08;6.82;;;1.95;;
51312;SDS011;37397;53.226;10.400;2023-03-23T16:10:37;6.13;;;1.77;;
51312;SDS011;37397;53.226;10.400;2023-03-23T16:13:04;7.63;;;2.08;;
51312;SDS011;37397;53.226;10.400;2023-03-23T16:15:31;6.20;;;1.80;;
51312;SDS011;37397;53.226;10.400;2023-03-23T16:17:57;5.07;;;1.90;;
51312;SDS011;37397;53.226;10.400;2023-03-23T16:20:24;4.93;;;1.67;;
51312;SDS011;37397;53.226;10.400;2023-03-23T16:22:51;8.52;;;2.50;;
51312;SDS011;37397;53.226;10.400;2023-03-23T16:25:18;6.28;;;1.92;;
51312;SDS011;37397;53.226;10.400;2023-03-23T16:27:44;5.15;;;1.70;;
51312;SDS011;37397;53.226;10.400;2023-03-23T16:30:21;5.18;;;2.00;;
51312;SDS011;37397;53.226;10.400;2023-03-23T16:32:50;5.50;;;1.77;;
51312;SDS011;37397;53.226;10.400;2023-03-23T16:35:17;8.77;;;2.05;;
51312;SDS011;37397;53.226;10.400;2023-03-23T16:37:48;6.22;;;1.80;;
51312;SDS011;37397;53.226;10.400;2023-03-23T16:40:32;4.70;;;1.48;;
51312;SDS011;37397;53.226;10.400;2023-03-23T16:42:59;6.65;;;2.20;;